sensor_id;sensor_type;location;lat;lon;timestamp;P1;durP1;ratioP1;P2;durP2;ratioP2
27543;SDS011;17996;51.056;3.656;2024-02-26T00:01:40;5.28;;;1.90;;
27543;SDS011;17996;51.056;3.656;2024-02-26T00:04:10;3.35;;;2.17;;
27543;SDS011;17996;51.056;3.656;2024-02-26T00:06:36;3.55;;;1.77;;
27543;SDS011;17996;51.056;3.656;2024-02-26T00:09:04;4.03;;;1.98;;
27543;SDS011;17996;51.056;3.656;2024-02-26T00:11:31;3.05;;;1.58;;
27543;SDS011;17996;51.056;3.656;2024-02-26T00:13:57;5.65;;;2.25;;
27543;SDS011;17996;51.056;3.656;2024-02-26T00:16:23;5.45;;;2.17;;
27543;SDS011;17996;51.056;3.656;2024-02-26T00:18:49;2.50;;;1.75;;
27543;SDS011;17996;51.056;3.656;2024-02-26T00:21:15;7.05;;;2.10;;
27543;SDS011;17996;51.056;3.656;2024-02-26T00:23:41;5.18;;;2.13;;
27543;SDS011;17996;51.056;3.656;2024-02-26T00:26:06;5.10;;;1.88;;
27543;SDS011;17996;51.056;3.656;2024-02-26T00:28:33;6.15;;;2.47;;
27543;SDS011;17996;51.056;3.656;2024-02-26T00:30:58;11.05;;;2.45;;
27543;SDS011;17996;51.056;3.656;2024-02-26T00:33:24;3.30;;;2.20;;
27543;SDS011;17996;51.056;3.656;2024-02-26T00:35:50;6.20;;;2.28;;
27543;SDS011;17996;51.056;3.656;2024-02-26T00:38:16;4.20;;;1.95;;
27543;SDS011;17996;51.056;3.656;2024-02-26T00:40:41;4.65;;;2.40;;
27543;SDS011;17996;51.056;3.656;2024-02-26T00:43:07;11.68;;;2.75;;
27543;SDS011;17996;51.056;3.656;2024-02-26T00:45:33;3.72;;;2.15;;
27543;SDS011;17996;51.056;3.656;2024-02-26T00:47:59;4.32;;;2.35;;
27543;SDS011;17996;51.056;3.656;2024-02-26T00:50:30;4.72;;;2.50;;
27543;SDS011;17996;51.056;3.656;2024-02-26T00:52:56;3.17;;;2.03;;
27543;SDS011;17996;51.056;3.656;2024-02-26T00:55:22;3.50;;;2.40;;
27543;SDS011;17996;51.056;3.656;2024-02-26T00:57:48;4.25;;;2.40;;
27543;SDS011;17996;51.056;3.656;2024-02-26T01:00:14;4.70;;;2.40;;
27543;SDS011;17996;51.056;3.656;2024-02-26T01:02:40;7.50;;;2.58;;
27543;SDS011;17996;51.056;3.656;2024-02-26T01:05:08;3.25;;;2.50;;
27543;SDS011;17996;51.056;3.656;2024-02-26T01:07:37;4.90;;;2.10;;
27543;SDS011;17996;51.056;3.656;2024-02-26T01:10:03;6.68;;;2.40;;
27543;SDS011;17996;51.056;3.656;2024-02-26T01:12:32;3.85;;;2.40;;
27543;SDS011;17996;51.056;3.656;2024-02-26T01:14:58;8.32;;;2.67;;
27543;SDS011;17996;51.056;3.656;2024-02-26T01:17:24;7.30;;;2.40;;
27543;SDS011;17996;51.056;3.656;2024-02-26T01:19:50;2.47;;;2.17;;
27543;SDS011;17996;51.056;3.656;2024-02-26T01:22:17;6.03;;;2.42;;
27543;SDS011;17996;51.056;3.656;2024-02-26T01:24:43;4.85;;;2.42;;
27543;SDS011;17996;51.056;3.656;2024-02-26T01:27:08;6.50;;;2.15;;
27543;SDS011;17996;51.056;3.656;2024-02-26T01:29:34;9.55;;;2.90;;
27543;SDS011;17996;51.056;3.656;2024-02-26T01:32:00;2.50;;;2.08;;
27543;SDS011;17996;51.056;3.656;2024-02-26T01:34:25;3.85;;;2.33;;
27543;SDS011;17996;51.056;3.656;2024-02-26T01:36:51;6.25;;;2.10;;
27543;SDS011;17996;51.056;3.656;2024-02-26T01:39:17;8.25;;;2.40;;
27543;SDS011;17996;51.056;3.656;2024-02-26T01:41:43;4.72;;;2.55;;
27543;SDS011;17996;51.056;3.656;2024-02-26T01:44:11;4.25;;;2.40;;
27543;SDS011;17996;51.056;3.656;2024-02-26T01:46:38;3.50;;;2.33;;
27543;SDS011;17996;51.056;3.656;2024-02-26T01:49:05;5.30;;;2.65;;
27543;SDS011;17996;51.056;3.656;2024-02-26T01:51:32;5.22;;;2.50;;
27543;SDS011;17996;51.056;3.656;2024-02-26T01:54:02;4.32;;;2.50;;
27543;SDS011;17996;51.056;3.656;2024-02-26T01:56:28;5.78;;;2.33;;
27543;SDS011;17996;51.056;3.656;2024-02-26T01:58:57;4.32;;;2.78;;
27543;SDS011;17996;51.056;3.656;2024-02-26T02:01:27;5.93;;;2.78;;
27543;SDS011;17996;51.056;3.656;2024-02-26T02:03:55;4.93;;;2.42;;
27543;SDS011;17996;51.056;3.656;2024-02-26T02:06:23;5.33;;;2.70;;
27543;SDS011;17996;51.056;3.656;2024-02-26T02:08:49;4.75;;;2.20;;
27543;SDS011;17996;51.056;3.656;2024-02-26T02:11:16;4.47;;;2.60;;
27543;SDS011;17996;51.056;3.656;2024-02-26T02:13:42;4.78;;;2.60;;
27543;SDS011;17996;51.056;3.656;2024-02-26T02:16:08;5.40;;;2.30;;
27543;SDS011;17996;51.056;3.656;2024-02-26T02:18:33;8.20;;;2.35;;
27543;SDS011;17996;51.056;3.656;2024-02-26T02:21:02;7.25;;;2.70;;
27543;SDS011;17996;51.056;3.656;2024-02-26T02:23:28;5.72;;;2.72;;
27543;SDS011;17996;51.056;3.656;2024-02-26T02:25:54;5.25;;;2.63;;
27543;SDS011;17996;51.056;3.656;2024-02-26T02:28:22;3.40;;;2.50;;
27543;SDS011;17996;51.056;3.656;2024-02-26T02:30:50;3.67;;;2.47;;
27543;SDS011;17996;51.056;3.656;2024-02-26T02:33:16;6.65;;;2.83;;
27543;SDS011;17996;51.056;3.656;2024-02-26T02:35:42;6.10;;;2.70;;
27543;SDS011;17996;51.056;3.656;2024-02-26T02:38:08;4.07;;;2.53;;
27543;SDS011;17996;51.056;3.656;2024-02-26T02:40:33;9.45;;;2.47;;
27543;SDS011;17996;51.056;3.656;2024-02-26T02:42:59;3.63;;;2.78;;
27543;SDS011;17996;51.056;3.656;2024-02-26T02:45:27;3.35;;;2.58;;
27543;SDS011;17996;51.056;3.656;2024-02-26T02:47:55;6.28;;;3.83;;
27543;SDS011;17996;51.056;3.656;2024-02-26T02:50:20;5.20;;;2.65;;
27543;SDS011;17996;51.056;3.656;2024-02-26T02:52:46;7.25;;;2.92;;
27543;SDS011;17996;51.056;3.656;2024-02-26T02:55:13;2.85;;;2.50;;
27543;SDS011;17996;51.056;3.656;2024-02-26T02:57:39;8.95;;;3.00;;
27543;SDS011;17996;51.056;3.656;2024-02-26T03:00:06;3.90;;;2.72;;
27543;SDS011;17996;51.056;3.656;2024-02-26T03:02:33;5.95;;;2.88;;
27543;SDS011;17996;51.056;3.656;2024-02-26T03:05:01;5.38;;;3.20;;
27543;SDS011;17996;51.056;3.656;2024-02-26T03:07:27;4.25;;;2.55;;
27543;SDS011;17996;51.056;3.656;2024-02-26T03:09:53;5.03;;;2.90;;
27543;SDS011;17996;51.056;3.656;2024-02-26T03:12:19;9.95;;;3.97;;
27543;SDS011;17996;51.056;3.656;2024-02-26T03:14:44;5.63;;;3.97;;
27543;SDS011;17996;51.056;3.656;2024-02-26T03:17:10;7.93;;;4.30;;
27543;SDS011;17996;51.056;3.656;2024-02-26T03:19:36;8.55;;;4.10;;
27543;SDS011;17996;51.056;3.656;2024-02-26T03:22:02;9.35;;;4.72;;
27543;SDS011;17996;51.056;3.656;2024-02-26T03:24:28;7.10;;;4.65;;
27543;SDS011;17996;51.056;3.656;2024-02-26T03:26:53;6.45;;;4.85;;
27543;SDS011;17996;51.056;3.656;2024-02-26T03:29:19;7.18;;;5.72;;
27543;SDS011;17996;51.056;3.656;2024-02-26T03:31:45;6.32;;;5.57;;
27543;SDS011;17996;51.056;3.656;2024-02-26T03:34:10;9.35;;;5.72;;
27543;SDS011;17996;51.056;3.656;2024-02-26T03:36:37;12.30;;;6.13;;
27543;SDS011;17996;51.056;3.656;2024-02-26T03:39:04;8.80;;;5.43;;
27543;SDS011;17996;51.056;3.656;2024-02-26T03:43:58;8.75;;;5.03;;
27543;SDS011;17996;51.056;3.656;2024-02-26T03:46:24;10.15;;;5.93;;
27543;SDS011;17996;51.056;3.656;2024-02-26T03:48:50;11.80;;;6.18;;
27543;SDS011;17996;51.056;3.656;2024-02-26T03:51:16;8.32;;;5.22;;
27543;SDS011;17996;51.056;3.656;2024-02-26T03:53:41;7.45;;;5.57;;
27543;SDS011;17996;51.056;3.656;2024-02-26T03:56:07;8.20;;;5.95;;
27543;SDS011;17996;51.056;3.656;2024-02-26T03:58:33;13.85;;;6.20;;
27543;SDS011;17996;51.056;3.656;2024-02-26T04:01:00;7.53;;;6.15;;
27543;SDS011;17996;51.056;3.656;2024-02-26T04:03:25;12.32;;;6.28;;
27543;SDS011;17996;51.056;3.656;2024-02-26T04:05:51;9.50;;;6.72;;
27543;SDS011;17996;51.056;3.656;2024-02-26T04:08:17;10.88;;;6.95;;
27543;SDS011;17996;51.056;3.656;2024-02-26T04:10:42;10.63;;;7.00;;
27543;SDS011;17996;51.056;3.656;2024-02-26T04:13:08;11.05;;;6.80;;
27543;SDS011;17996;51.056;3.656;2024-02-26T04:15:34;9.27;;;7.50;;
27543;SDS011;17996;51.056;3.656;2024-02-26T04:18:00;10.85;;;7.40;;
27543;SDS011;17996;51.056;3.656;2024-02-26T04:20:25;8.73;;;7.25;;
27543;SDS011;17996;51.056;3.656;2024-02-26T04:22:51;9.55;;;7.78;;
27543;SDS011;17996;51.056;3.656;2024-02-26T04:25:18;9.77;;;7.68;;
27543;SDS011;17996;51.056;3.656;2024-02-26T04:27:43;15.05;;;7.55;;
27543;SDS011;17996;51.056;3.656;2024-02-26T04:30:09;14.25;;;8.15;;
27543;SDS011;17996;51.056;3.656;2024-02-26T04:32:35;10.80;;;7.90;;
27543;SDS011;17996;51.056;3.656;2024-02-26T04:35:02;9.50;;;7.57;;
27543;SDS011;17996;51.056;3.656;2024-02-26T04:37:28;13.55;;;8.88;;
27543;SDS011;17996;51.056;3.656;2024-02-26T04:40:00;10.23;;;8.10;;
27543;SDS011;17996;51.056;3.656;2024-02-26T04:42:26;8.95;;;7.32;;
27543;SDS011;17996;51.056;3.656;2024-02-26T04:44:52;10.60;;;7.75;;
27543;SDS011;17996;51.056;3.656;2024-02-26T04:47:19;9.63;;;7.60;;
27543;SDS011;17996;51.056;3.656;2024-02-26T04:49:45;11.10;;;8.20;;
27543;SDS011;17996;51.056;3.656;2024-02-26T04:52:11;13.68;;;8.27;;
27543;SDS011;17996;51.056;3.656;2024-02-26T04:54:36;9.50;;;7.43;;
27543;SDS011;17996;51.056;3.656;2024-02-26T04:57:02;9.73;;;7.15;;
27543;SDS011;17996;51.056;3.656;2024-02-26T04:59:28;12.32;;;7.40;;
27543;SDS011;17996;51.056;3.656;2024-02-26T05:01:53;8.73;;;7.75;;
27543;SDS011;17996;51.056;3.656;2024-02-26T05:04:19;9.15;;;6.93;;
27543;SDS011;17996;51.056;3.656;2024-02-26T05:06:45;7.32;;;6.60;;
27543;SDS011;17996;51.056;3.656;2024-02-26T05:09:10;12.23;;;7.07;;
27543;SDS011;17996;51.056;3.656;2024-02-26T05:11:37;10.73;;;6.20;;
27543;SDS011;17996;51.056;3.656;2024-02-26T05:14:02;9.15;;;6.57;;
27543;SDS011;17996;51.056;3.656;2024-02-26T05:16:28;10.55;;;6.32;;
27543;SDS011;17996;51.056;3.656;2024-02-26T05:18:56;10.07;;;5.95;;
27543;SDS011;17996;51.056;3.656;2024-02-26T05:21:22;10.50;;;5.97;;
27543;SDS011;17996;51.056;3.656;2024-02-26T05:23:47;9.02;;;5.60;;
27543;SDS011;17996;51.056;3.656;2024-02-26T05:26:20;7.35;;;5.25;;
27543;SDS011;17996;51.056;3.656;2024-02-26T05:28:48;12.60;;;5.80;;
27543;SDS011;17996;51.056;3.656;2024-02-26T05:31:15;8.77;;;5.25;;
27543;SDS011;17996;51.056;3.656;2024-02-26T05:33:41;6.88;;;4.80;;
27543;SDS011;17996;51.056;3.656;2024-02-26T05:36:08;6.80;;;5.10;;
27543;SDS011;17996;51.056;3.656;2024-02-26T05:38:34;8.07;;;5.82;;
27543;SDS011;17996;51.056;3.656;2024-02-26T05:41:00;8.10;;;5.43;;
27543;SDS011;17996;51.056;3.656;2024-02-26T05:43:26;9.60;;;6.05;;
27543;SDS011;17996;51.056;3.656;2024-02-26T05:45:52;7.65;;;5.20;;
27543;SDS011;17996;51.056;3.656;2024-02-26T05:48:18;8.90;;;5.90;;
27543;SDS011;17996;51.056;3.656;2024-02-26T05:50:47;7.88;;;5.78;;
27543;SDS011;17996;51.056;3.656;2024-02-26T05:53:13;7.57;;;6.38;;
27543;SDS011;17996;51.056;3.656;2024-02-26T05:55:39;7.28;;;5.93;;
27543;SDS011;17996;51.056;3.656;2024-02-26T05:58:05;20.77;;;8.88;;
27543;SDS011;17996;51.056;3.656;2024-02-26T06:00:31;9.70;;;6.68;;
27543;SDS011;17996;51.056;3.656;2024-02-26T06:02:56;11.27;;;6.65;;
27543;SDS011;17996;51.056;3.656;2024-02-26T06:05:23;8.77;;;7.50;;
27543;SDS011;17996;51.056;3.656;2024-02-26T06:07:48;14.10;;;7.65;;
27543;SDS011;17996;51.056;3.656;2024-02-26T06:10:14;10.38;;;7.65;;
27543;SDS011;17996;51.056;3.656;2024-02-26T06:12:40;9.75;;;7.93;;
27543;SDS011;17996;51.056;3.656;2024-02-26T06:15:06;13.25;;;7.47;;
27543;SDS011;17996;51.056;3.656;2024-02-26T06:17:32;11.57;;;8.00;;
27543;SDS011;17996;51.056;3.656;2024-02-26T06:19:58;8.15;;;7.20;;
27543;SDS011;17996;51.056;3.656;2024-02-26T06:22:25;13.48;;;7.53;;
27543;SDS011;17996;51.056;3.656;2024-02-26T06:24:51;9.85;;;7.85;;
27543;SDS011;17996;51.056;3.656;2024-02-26T06:27:16;10.63;;;7.95;;
27543;SDS011;17996;51.056;3.656;2024-02-26T06:29:42;11.68;;;7.78;;
27543;SDS011;17996;51.056;3.656;2024-02-26T06:32:08;10.65;;;8.52;;
27543;SDS011;17996;51.056;3.656;2024-02-26T06:34:35;11.90;;;9.73;;
27543;SDS011;17996;51.056;3.656;2024-02-26T06:37:01;9.82;;;7.65;;
27543;SDS011;17996;51.056;3.656;2024-02-26T06:39:28;9.38;;;7.82;;
27543;SDS011;17996;51.056;3.656;2024-02-26T06:41:54;10.18;;;8.27;;
27543;SDS011;17996;51.056;3.656;2024-02-26T06:44:25;12.32;;;7.63;;
27543;SDS011;17996;51.056;3.656;2024-02-26T06:46:51;11.35;;;7.25;;
27543;SDS011;17996;51.056;3.656;2024-02-26T06:49:17;13.80;;;8.45;;
27543;SDS011;17996;51.056;3.656;2024-02-26T06:51:43;12.23;;;8.02;;
27543;SDS011;17996;51.056;3.656;2024-02-26T06:54:09;11.73;;;7.95;;
27543;SDS011;17996;51.056;3.656;2024-02-26T06:56:34;9.75;;;7.03;;
27543;SDS011;17996;51.056;3.656;2024-02-26T06:59:00;11.80;;;7.63;;
27543;SDS011;17996;51.056;3.656;2024-02-26T07:01:26;8.38;;;6.10;;
27543;SDS011;17996;51.056;3.656;2024-02-26T07:03:53;10.25;;;7.35;;
27543;SDS011;17996;51.056;3.656;2024-02-26T07:06:18;10.30;;;6.05;;
27543;SDS011;17996;51.056;3.656;2024-02-26T07:08:44;10.45;;;6.50;;
27543;SDS011;17996;51.056;3.656;2024-02-26T07:11:10;10.77;;;6.82;;
27543;SDS011;17996;51.056;3.656;2024-02-26T07:13:36;10.40;;;7.28;;
27543;SDS011;17996;51.056;3.656;2024-02-26T07:16:02;11.40;;;7.43;;
27543;SDS011;17996;51.056;3.656;2024-02-26T07:18:28;11.25;;;6.80;;
27543;SDS011;17996;51.056;3.656;2024-02-26T07:20:54;9.35;;;6.72;;
27543;SDS011;17996;51.056;3.656;2024-02-26T07:23:23;10.05;;;6.15;;
27543;SDS011;17996;51.056;3.656;2024-02-26T07:25:48;8.73;;;6.70;;
27543;SDS011;17996;51.056;3.656;2024-02-26T07:28:18;8.93;;;6.50;;
27543;SDS011;17996;51.056;3.656;2024-02-26T07:30:44;9.13;;;5.93;;
27543;SDS011;17996;51.056;3.656;2024-02-26T07:33:10;9.43;;;6.55;;
27543;SDS011;17996;51.056;3.656;2024-02-26T07:35:36;11.65;;;6.10;;
27543;SDS011;17996;51.056;3.656;2024-02-26T07:38:04;7.57;;;6.38;;
27543;SDS011;17996;51.056;3.656;2024-02-26T07:40:31;7.45;;;5.80;;
27543;SDS011;17996;51.056;3.656;2024-02-26T07:42:56;7.40;;;5.82;;
27543;SDS011;17996;51.056;3.656;2024-02-26T07:45:23;9.85;;;6.72;;
27543;SDS011;17996;51.056;3.656;2024-02-26T07:47:49;7.82;;;5.65;;
27543;SDS011;17996;51.056;3.656;2024-02-26T07:50:18;9.70;;;5.95;;
27543;SDS011;17996;51.056;3.656;2024-02-26T07:52:44;8.30;;;5.90;;
27543;SDS011;17996;51.056;3.656;2024-02-26T07:55:10;9.57;;;6.05;;
27543;SDS011;17996;51.056;3.656;2024-02-26T07:57:36;10.25;;;5.90;;
27543;SDS011;17996;51.056;3.656;2024-02-26T08:00:02;9.25;;;7.05;;
27543;SDS011;17996;51.056;3.656;2024-02-26T08:02:29;9.13;;;5.88;;
27543;SDS011;17996;51.056;3.656;2024-02-26T08:04:54;7.65;;;5.50;;
27543;SDS011;17996;51.056;3.656;2024-02-26T08:07:20;6.13;;;5.18;;
27543;SDS011;17996;51.056;3.656;2024-02-26T08:09:46;8.70;;;6.03;;
27543;SDS011;17996;51.056;3.656;2024-02-26T08:12:12;9.15;;;6.13;;
27543;SDS011;17996;51.056;3.656;2024-02-26T08:14:38;9.10;;;5.63;;
27543;SDS011;17996;51.056;3.656;2024-02-26T08:17:04;8.77;;;6.07;;
27543;SDS011;17996;51.056;3.656;2024-02-26T08:19:30;7.63;;;5.50;;
27543;SDS011;17996;51.056;3.656;2024-02-26T08:21:56;7.45;;;5.20;;
27543;SDS011;17996;51.056;3.656;2024-02-26T08:24:22;11.55;;;5.80;;
27543;SDS011;17996;51.056;3.656;2024-02-26T08:26:48;10.57;;;6.82;;
27543;SDS011;17996;51.056;3.656;2024-02-26T08:29:14;9.25;;;5.40;;
27543;SDS011;17996;51.056;3.656;2024-02-26T08:31:39;9.27;;;5.50;;
27543;SDS011;17996;51.056;3.656;2024-02-26T08:34:06;7.47;;;5.63;;
27543;SDS011;17996;51.056;3.656;2024-02-26T08:36:34;10.13;;;5.78;;
27543;SDS011;17996;51.056;3.656;2024-02-26T08:39:01;7.88;;;5.32;;
27543;SDS011;17996;51.056;3.656;2024-02-26T08:41:27;9.90;;;5.70;;
27543;SDS011;17996;51.056;3.656;2024-02-26T08:43:52;9.00;;;6.45;;
27543;SDS011;17996;51.056;3.656;2024-02-26T08:46:18;8.70;;;6.22;;
27543;SDS011;17996;51.056;3.656;2024-02-26T08:48:44;8.95;;;6.47;;
27543;SDS011;17996;51.056;3.656;2024-02-26T08:51:09;9.23;;;6.45;;
27543;SDS011;17996;51.056;3.656;2024-02-26T08:53:35;9.52;;;6.78;;
27543;SDS011;17996;51.056;3.656;2024-02-26T08:56:01;10.13;;;6.50;;
27543;SDS011;17996;51.056;3.656;2024-02-26T08:58:27;15.48;;;7.60;;
27543;SDS011;17996;51.056;3.656;2024-02-26T09:00:53;14.25;;;6.85;;
27543;SDS011;17996;51.056;3.656;2024-02-26T09:03:19;8.65;;;5.97;;
27543;SDS011;17996;51.056;3.656;2024-02-26T09:05:45;12.68;;;6.53;;
27543;SDS011;17996;51.056;3.656;2024-02-26T09:08:11;10.50;;;6.72;;
27543;SDS011;17996;51.056;3.656;2024-02-26T09:10:37;10.23;;;6.63;;
27543;SDS011;17996;51.056;3.656;2024-02-26T09:13:03;9.50;;;6.40;;
27543;SDS011;17996;51.056;3.656;2024-02-26T09:15:29;8.55;;;6.43;;
27543;SDS011;17996;51.056;3.656;2024-02-26T09:17:55;8.27;;;6.93;;
27543;SDS011;17996;51.056;3.656;2024-02-26T09:20:21;11.63;;;7.25;;
27543;SDS011;17996;51.056;3.656;2024-02-26T09:22:49;10.43;;;7.78;;
27543;SDS011;17996;51.056;3.656;2024-02-26T09:25:16;11.07;;;7.18;;
27543;SDS011;17996;51.056;3.656;2024-02-26T09:27:42;14.32;;;7.07;;
27543;SDS011;17996;51.056;3.656;2024-02-26T09:30:09;13.02;;;7.30;;
27543;SDS011;17996;51.056;3.656;2024-02-26T09:32:35;11.82;;;7.32;;
27543;SDS011;17996;51.056;3.656;2024-02-26T09:35:01;10.52;;;7.75;;
27543;SDS011;17996;51.056;3.656;2024-02-26T09:37:27;11.63;;;8.38;;
27543;SDS011;17996;51.056;3.656;2024-02-26T09:39:53;11.63;;;8.73;;
27543;SDS011;17996;51.056;3.656;2024-02-26T09:42:18;11.60;;;7.70;;
27543;SDS011;17996;51.056;3.656;2024-02-26T09:44:44;11.50;;;7.93;;
27543;SDS011;17996;51.056;3.656;2024-02-26T09:47:13;11.98;;;8.45;;
27543;SDS011;17996;51.056;3.656;2024-02-26T09:49:42;14.05;;;9.35;;
27543;SDS011;17996;51.056;3.656;2024-02-26T09:52:08;19.88;;;10.75;;
27543;SDS011;17996;51.056;3.656;2024-02-26T09:54:37;13.27;;;9.82;;
27543;SDS011;17996;51.056;3.656;2024-02-26T09:57:04;17.27;;;10.85;;
27543;SDS011;17996;51.056;3.656;2024-02-26T09:59:39;15.40;;;9.68;;
27543;SDS011;17996;51.056;3.656;2024-02-26T10:02:13;18.48;;;10.77;;
27543;SDS011;17996;51.056;3.656;2024-02-26T10:04:40;16.90;;;10.82;;
27543;SDS011;17996;51.056;3.656;2024-02-26T10:07:10;12.75;;;9.57;;
27543;SDS011;17996;51.056;3.656;2024-02-26T10:09:37;15.05;;;9.60;;
27543;SDS011;17996;51.056;3.656;2024-02-26T10:12:04;13.98;;;9.02;;
27543;SDS011;17996;51.056;3.656;2024-02-26T10:14:30;13.10;;;9.30;;
27543;SDS011;17996;51.056;3.656;2024-02-26T10:16:56;17.42;;;10.25;;
27543;SDS011;17996;51.056;3.656;2024-02-26T10:19:28;14.10;;;9.68;;
27543;SDS011;17996;51.056;3.656;2024-02-26T10:21:58;16.08;;;9.43;;
27543;SDS011;17996;51.056;3.656;2024-02-26T10:24:25;17.65;;;10.50;;
27543;SDS011;17996;51.056;3.656;2024-02-26T10:26:55;14.50;;;10.23;;
27543;SDS011;17996;51.056;3.656;2024-02-26T10:29:23;20.50;;;10.95;;
27543;SDS011;17996;51.056;3.656;2024-02-26T10:31:50;17.25;;;10.68;;
27543;SDS011;17996;51.056;3.656;2024-02-26T10:34:16;14.68;;;10.65;;
27543;SDS011;17996;51.056;3.656;2024-02-26T10:36:42;15.75;;;10.38;;
27543;SDS011;17996;51.056;3.656;2024-02-26T10:39:09;19.58;;;12.07;;
27543;SDS011;17996;51.056;3.656;2024-02-26T10:41:40;18.50;;;11.00;;
27543;SDS011;17996;51.056;3.656;2024-02-26T10:44:10;12.13;;;8.50;;
27543;SDS011;17996;51.056;3.656;2024-02-26T10:46:37;21.48;;;11.63;;
27543;SDS011;17996;51.056;3.656;2024-02-26T10:49:05;23.80;;;12.75;;
27543;SDS011;17996;51.056;3.656;2024-02-26T10:51:32;19.52;;;12.48;;
27543;SDS011;17996;51.056;3.656;2024-02-26T10:54:02;19.13;;;12.07;;
27543;SDS011;17996;51.056;3.656;2024-02-26T10:56:33;22.98;;;13.90;;
27543;SDS011;17996;51.056;3.656;2024-02-26T10:58:59;24.15;;;13.65;;
27543;SDS011;17996;51.056;3.656;2024-02-26T11:01:27;21.48;;;13.45;;
27543;SDS011;17996;51.056;3.656;2024-02-26T11:03:54;26.77;;;15.07;;
27543;SDS011;17996;51.056;3.656;2024-02-26T11:06:21;23.00;;;15.10;;
27543;SDS011;17996;51.056;3.656;2024-02-26T11:08:50;23.17;;;13.70;;
27543;SDS011;17996;51.056;3.656;2024-02-26T11:13:44;23.35;;;14.77;;
27543;SDS011;17996;51.056;3.656;2024-02-26T11:16:18;28.85;;;16.55;;
27543;SDS011;17996;51.056;3.656;2024-02-26T11:18:48;25.02;;;15.55;;
27543;SDS011;17996;51.056;3.656;2024-02-26T11:21:18;28.98;;;16.98;;
27543;SDS011;17996;51.056;3.656;2024-02-26T11:23:45;22.38;;;15.68;;
27543;SDS011;17996;51.056;3.656;2024-02-26T11:26:11;22.25;;;14.95;;
27543;SDS011;17996;51.056;3.656;2024-02-26T11:28:39;23.08;;;16.00;;
27543;SDS011;17996;51.056;3.656;2024-02-26T11:31:06;21.38;;;14.88;;
27543;SDS011;17996;51.056;3.656;2024-02-26T11:33:33;22.77;;;14.65;;
27543;SDS011;17996;51.056;3.656;2024-02-26T11:36:01;23.80;;;15.63;;
27543;SDS011;17996;51.056;3.656;2024-02-26T11:38:32;22.20;;;15.05;;
27543;SDS011;17996;51.056;3.656;2024-02-26T11:40:58;20.83;;;14.55;;
27543;SDS011;17996;51.056;3.656;2024-02-26T11:51:57;20.25;;;12.73;;
27543;SDS011;17996;51.056;3.656;2024-02-26T11:57:20;18.97;;;13.03;;
27543;SDS011;17996;51.056;3.656;2024-02-26T11:59:50;18.80;;;12.93;;
27543;SDS011;17996;51.056;3.656;2024-02-26T12:05:23;18.58;;;11.82;;
27543;SDS011;17996;51.056;3.656;2024-02-26T12:07:52;16.60;;;10.50;;
27543;SDS011;17996;51.056;3.656;2024-02-26T12:10:24;17.02;;;10.68;;
27543;SDS011;17996;51.056;3.656;2024-02-26T12:16:10;20.27;;;10.98;;
27543;SDS011;17996;51.056;3.656;2024-02-26T12:18:17;14.73;;;8.90;;
27543;SDS011;17996;51.056;3.656;2024-02-26T12:20:43;16.85;;;10.20;;
27543;SDS011;17996;51.056;3.656;2024-02-26T12:23:14;14.38;;;9.38;;
27543;SDS011;17996;51.056;3.656;2024-02-26T12:25:42;12.85;;;8.25;;
27543;SDS011;17996;51.056;3.656;2024-02-26T12:28:09;11.52;;;8.73;;
27543;SDS011;17996;51.056;3.656;2024-02-26T12:30:35;12.15;;;9.10;;
27543;SDS011;17996;51.056;3.656;2024-02-26T12:33:00;14.05;;;8.75;;
27543;SDS011;17996;51.056;3.656;2024-02-26T12:35:28;13.70;;;8.75;;
27543;SDS011;17996;51.056;3.656;2024-02-26T12:37:56;12.07;;;8.17;;
27543;SDS011;17996;51.056;3.656;2024-02-26T12:40:23;16.00;;;7.18;;
27543;SDS011;17996;51.056;3.656;2024-02-26T12:42:49;10.63;;;8.43;;
27543;SDS011;17996;51.056;3.656;2024-02-26T12:45:15;11.48;;;7.22;;
27543;SDS011;17996;51.056;3.656;2024-02-26T12:47:42;10.80;;;6.70;;
27543;SDS011;17996;51.056;3.656;2024-02-26T12:50:09;13.88;;;7.22;;
27543;SDS011;17996;51.056;3.656;2024-02-26T12:52:36;9.38;;;6.68;;
27543;SDS011;17996;51.056;3.656;2024-02-26T12:55:06;9.00;;;6.63;;
27543;SDS011;17996;51.056;3.656;2024-02-26T12:57:34;15.77;;;7.38;;
27543;SDS011;17996;51.056;3.656;2024-02-26T13:00:02;16.45;;;7.78;;
27543;SDS011;17996;51.056;3.656;2024-02-26T13:02:35;11.93;;;7.07;;
27543;SDS011;17996;51.056;3.656;2024-02-26T13:05:03;10.90;;;7.18;;
27543;SDS011;17996;51.056;3.656;2024-02-26T13:07:30;12.70;;;7.50;;
27543;SDS011;17996;51.056;3.656;2024-02-26T13:09:56;8.75;;;6.82;;
27543;SDS011;17996;51.056;3.656;2024-02-26T13:12:22;14.18;;;7.05;;
27543;SDS011;17996;51.056;3.656;2024-02-26T13:14:58;14.27;;;8.32;;
27543;SDS011;17996;51.056;3.656;2024-02-26T13:17:24;9.45;;;6.63;;
27543;SDS011;17996;51.056;3.656;2024-02-26T13:19:52;10.43;;;7.70;;
27543;SDS011;17996;51.056;3.656;2024-02-26T13:22:20;15.82;;;7.20;;
27543;SDS011;17996;51.056;3.656;2024-02-26T13:24:53;11.93;;;8.97;;
27543;SDS011;17996;51.056;3.656;2024-02-26T13:27:25;11.38;;;7.25;;
27543;SDS011;17996;51.056;3.656;2024-02-26T13:30:10;13.95;;;7.85;;
27543;SDS011;17996;51.056;3.656;2024-02-26T13:32:37;8.52;;;6.53;;
27543;SDS011;17996;51.056;3.656;2024-02-26T13:37:35;10.77;;;6.95;;
27543;SDS011;17996;51.056;3.656;2024-02-26T13:40:06;9.20;;;7.47;;
27543;SDS011;17996;51.056;3.656;2024-02-26T13:42:33;14.90;;;8.20;;
27543;SDS011;17996;51.056;3.656;2024-02-26T13:45:00;10.07;;;7.82;;
27543;SDS011;17996;51.056;3.656;2024-02-26T13:47:26;12.13;;;7.35;;
27543;SDS011;17996;51.056;3.656;2024-02-26T13:49:51;12.73;;;7.40;;
27543;SDS011;17996;51.056;3.656;2024-02-26T13:52:17;12.02;;;8.27;;
27543;SDS011;17996;51.056;3.656;2024-02-26T13:54:45;11.23;;;8.15;;
27543;SDS011;17996;51.056;3.656;2024-02-26T13:57:11;12.73;;;8.50;;
27543;SDS011;17996;51.056;3.656;2024-02-26T13:59:37;10.40;;;7.85;;
27543;SDS011;17996;51.056;3.656;2024-02-26T14:02:07;10.07;;;8.20;;
27543;SDS011;17996;51.056;3.656;2024-02-26T14:07:02;11.15;;;7.95;;
27543;SDS011;17996;51.056;3.656;2024-02-26T14:09:29;12.18;;;8.98;;
27543;SDS011;17996;51.056;3.656;2024-02-26T14:11:55;11.30;;;7.70;;
27543;SDS011;17996;51.056;3.656;2024-02-26T14:14:21;12.13;;;8.55;;
27543;SDS011;17996;51.056;3.656;2024-02-26T14:16:46;9.82;;;7.35;;
27543;SDS011;17996;51.056;3.656;2024-02-26T14:19:12;12.95;;;7.85;;
27543;SDS011;17996;51.056;3.656;2024-02-26T14:21:38;13.35;;;7.90;;
27543;SDS011;17996;51.056;3.656;2024-02-26T14:24:04;13.50;;;8.40;;
27543;SDS011;17996;51.056;3.656;2024-02-26T14:26:30;13.43;;;7.90;;
27543;SDS011;17996;51.056;3.656;2024-02-26T14:28:56;9.82;;;6.57;;
27543;SDS011;17996;51.056;3.656;2024-02-26T14:31:22;14.18;;;8.27;;
27543;SDS011;17996;51.056;3.656;2024-02-26T14:33:48;14.07;;;7.53;;
27543;SDS011;17996;51.056;3.656;2024-02-26T14:36:15;16.15;;;9.18;;
27543;SDS011;17996;51.056;3.656;2024-02-26T14:38:41;14.23;;;9.48;;
27543;SDS011;17996;51.056;3.656;2024-02-26T14:41:07;11.88;;;7.97;;
27543;SDS011;17996;51.056;3.656;2024-02-26T14:43:32;13.55;;;7.78;;
27543;SDS011;17996;51.056;3.656;2024-02-26T14:46:00;17.67;;;8.43;;
27543;SDS011;17996;51.056;3.656;2024-02-26T14:48:25;12.00;;;8.10;;
27543;SDS011;17996;51.056;3.656;2024-02-26T14:50:51;10.85;;;7.88;;
27543;SDS011;17996;51.056;3.656;2024-02-26T14:53:17;15.18;;;8.13;;
27543;SDS011;17996;51.056;3.656;2024-02-26T14:55:43;12.43;;;7.90;;
27543;SDS011;17996;51.056;3.656;2024-02-26T14:58:09;11.73;;;8.32;;
27543;SDS011;17996;51.056;3.656;2024-02-26T15:00:38;9.50;;;7.80;;
27543;SDS011;17996;51.056;3.656;2024-02-26T15:03:04;14.02;;;9.45;;